YILW weather

Public forecast

Using degrees Celsius for public forecast. Weather courtesy of forecast.io.

Closest aviation weather report (METAR) to Inglewood Airport

Closest report is Oakey Airport, 69.4 nm (128.4 km) NNE. Retrieved 2020/08/15 12:00 UTC (35 minutes ago):

YBOK 151200Z AUTO 25007KT 9999 // NCD 10/09 Q1014

Closest aviation forecast (TAF) to Inglewood Airport

Forecast is more than 12 hours old.

Closest forecast is RAAF Base Amberley, 97.6 nm (180.7 km) ENE. Retrieved 2020/08/14 06:00 UTC (1 day ago):

TAF COR YAMB 140535Z 1406/1506 06013KT 9999 SCT045 FM140900 VRB03KT 9999 SCT030 BKN100 FM141500 33008KT 9999 -RA SCT025 BKN040 FM150100 29015KT 9999 -SHRA SCT035 BKN100 TEMPO 1421/1505 3000 RA BKN010 PROB30 INTER 1500/1505 VRB20G45KT 2000 TSRA SCT040CB BKN010